Time;durP1;ratioP1;P1;durP2;ratioP2;P2;SDS_P1;SDS_P2;PMS_P1;PMS_P2;Temp;Humidity;BMP_temperature;BMP_pressure;BME280_temperature;BME280_humidity;BME280_pressure;Samples;Min_cycle;Max_cycle;Signal;HPM_P1;HPM_P2
2022/01/22 00:00:13;;;;;;;41.65;23.75;;;;;;;;;;5002487;28;20034;-70
2022/01/22 00:02:39;;;;;;;30.70;21.75;;;;;;;;;;5007221;28;20542;-71
2022/01/22 00:05:06;;;;;;;39.28;20.63;;;;;;;;;;5007010;28;20034;-69
2022/01/22 00:07:32;;;;;;;34.38;21.35;;;;;;;;;;5004352;28;20045;-70
2022/01/22 00:10:03;;;;;;;33.78;18.60;;;;;;;;;;4986728;28;20504;-70
2022/01/22 00:15:05;;;;;;;46.63;23.67;;;;;;;;;;5002245;28;20037;-70
2022/01/22 00:17:31;;;;;;;32.33;20.02;;;;;;;;;;4998144;28;20068;-70
2022/01/22 00:19:56;;;;;;;63.28;27.02;;;;;;;;;;5006442;28;20025;-70
2022/01/22 00:22:26;;;;;;;41.47;21.13;;;;;;;;;;5002978;28;20030;-71
2022/01/22 00:24:54;;;;;;;34.10;19.35;;;;;;;;;;5002893;28;20033;-70
2022/01/22 00:27:20;;;;;;;29.33;19.88;;;;;;;;;;5001454;28;20038;-71
2022/01/22 00:29:46;;;;;;;37.47;19.15;;;;;;;;;;5020514;28;20496;-71
2022/01/22 00:32:11;;;;;;;30.45;17.45;;;;;;;;;;4989389;28;20131;-70
2022/01/22 00:34:37;;;;;;;35.60;20.92;;;;;;;;;;4994660;28;20089;-70
2022/01/22 00:37:03;;;;;;;25.95;18.55;;;;;;;;;;4994077;28;20053;-71
2022/01/22 00:39:30;;;;;;;31.10;19.48;;;;;;;;;;4984340;28;20140;-70
2022/01/22 00:41:56;;;;;;;24.02;17.23;;;;;;;;;;5000964;28;20224;-69
2022/01/22 00:44:21;;;;;;;22.88;16.88;;;;;;;;;;4995490;28;20390;-71
2022/01/22 00:46:47;;;;;;;32.08;19.30;;;;;;;;;;5021246;28;20377;-70
2022/01/22 00:49:13;;;;;;;23.42;16.67;;;;;;;;;;4996499;28;20045;-70
2022/01/22 00:51:38;;;;;;;21.17;15.75;;;;;;;;;;5000898;28;20034;-70
2022/01/22 00:54:04;;;;;;;24.45;16.02;;;;;;;;;;4986657;28;20034;-70
2022/01/22 00:56:30;;;;;;;19.92;16.23;;;;;;;;;;4989842;28;20037;-70
2022/01/22 00:58:56;;;;;;;22.55;18.70;;;;;;;;;;5003940;28;20040;-70
2022/01/22 01:01:22;;;;;;;22.00;16.67;;;;;;;;;;5005742;28;20157;-70
2022/01/22 01:03:48;;;;;;;18.65;15.80;;;;;;;;;;5007471;28;20037;-71
2022/01/22 01:06:13;;;;;;;21.45;17.63;;;;;;;;;;5018403;28;20096;-70
2022/01/22 01:08:39;;;;;;;26.02;18.40;;;;;;;;;;5004563;28;20050;-71
2022/01/22 01:11:06;;;;;;;25.13;15.52;;;;;;;;;;5005115;28;20034;-70
2022/01/22 01:13:40;;;;;;;30.55;18.85;;;;;;;;;;5019069;28;20092;-70
2022/01/22 01:16:19;;;;;;;24.75;17.50;;;;;;;;;;5002744;28;20041;-70
2022/01/22 01:32:49;;;;;;;25.92;17.42;;;;;;;;;;5021436;28;20136;-70
2022/01/22 01:35:15;;;;;;;27.60;18.75;;;;;;;;;;5000302;28;20061;-70
2022/01/22 01:37:41;;;;;;;21.67;17.65;;;;;;;;;;4999083;28;20044;-70
2022/01/22 01:40:09;;;;;;;25.52;20.35;;;;;;;;;;5009407;28;20041;-69
2022/01/22 01:45:07;;;;;;;31.92;20.38;;;;;;;;;;5004591;28;20050;-69
2022/01/22 01:47:54;;;;;;;24.60;17.80;;;;;;;;;;5009308;28;20045;-69
2022/01/22 01:50:19;;;;;;;28.17;19.52;;;;;;;;;;4998096;28;20042;-69
2022/01/22 01:58:59;;;;;;;27.17;18.38;;;;;;;;;;5006320;28;20042;-69
2022/01/22 02:01:25;;;;;;;27.15;20.40;;;;;;;;;;5008320;28;20424;-70
2022/01/22 02:03:51;;;;;;;32.05;19.02;;;;;;;;;;4992195;28;20091;-69
2022/01/22 02:06:20;;;;;;;24.87;17.87;;;;;;;;;;5019516;28;20117;-69
2022/01/22 02:08:46;;;;;;;25.55;19.10;;;;;;;;;;5002490;28;20121;-70
2022/01/22 02:11:20;;;;;;;24.25;19.30;;;;;;;;;;4992310;28;20412;-69
2022/01/22 02:14:06;;;;;;;24.15;18.08;;;;;;;;;;4987135;28;20037;-70
2022/01/22 02:25:15;;;;;;;22.73;19.25;;;;;;;;;;5014904;28;20460;-69
2022/01/22 02:27:41;;;;;;;19.70;16.60;;;;;;;;;;5004452;28;20551;-69
2022/01/22 02:30:17;;;;;;;23.95;18.48;;;;;;;;;;4995730;28;20077;-69
2022/01/22 02:33:24;;;;;;;20.05;17.88;;;;;;;;;;5003774;28;20062;-70
2022/01/22 02:36:14;;;;;;;21.95;18.33;;;;;;;;;;5009049;28;20038;-70
2022/01/22 02:41:23;;;;;;;23.13;17.88;;;;;;;;;;5024280;28;20038;-70
2022/01/22 02:48:16;;;;;;;26.95;18.52;;;;;;;;;;4988234;28;20528;-70
2022/01/22 02:50:42;;;;;;;21.92;19.48;;;;;;;;;;4999601;28;20458;-70
2022/01/22 02:53:12;;;;;;;24.90;17.95;;;;;;;;;;4987406;28;20038;-70
2022/01/22 02:55:38;;;;;;;;;;;;;;;;;;4993163;28;20759;-70
2022/01/22 02:58:04;;;;;;;20.63;17.13;;;;;;;;;;4982645;28;19914;-70
2022/01/22 03:00:31;;;;;;;21.00;18.50;;;;;;;;;;5017970;28;20079;-70
2022/01/22 03:02:57;;;;;;;22.65;19.73;;;;;;;;;;4989483;28;20524;-70
2022/01/22 03:05:27;;;;;;;18.58;15.70;;;;;;;;;;5016110;28;20046;-70
2022/01/22 03:07:56;;;;;;;19.40;16.92;;;;;;;;;;4987696;28;20037;-70
2022/01/22 03:10:25;;;;;;;22.25;18.70;;;;;;;;;;5015063;28;20251;-69
2022/01/22 03:15:53;;;;;;;22.35;19.58;;;;;;;;;;4989176;28;20139;-70
2022/01/22 03:18:38;;;;;;;23.00;19.83;;;;;;;;;;5005130;28;20042;-69
2022/01/22 03:21:12;;;;;;;20.17;18.15;;;;;;;;;;5005924;28;20042;-69
2022/01/22 03:29:15;;;;;;;25.13;19.77;;;;;;;;;;4998545;28;20037;-70
2022/01/22 03:31:42;;;;;;;20.33;18.13;;;;;;;;;;5003180;28;20034;-69
2022/01/22 03:34:09;;;;;;;20.80;16.48;;;;;;;;;;4984366;28;20038;-70
2022/01/22 03:36:36;;;;;;;28.50;18.60;;;;;;;;;;5003930;28;20045;-70
2022/01/22 03:39:06;;;;;;;19.65;17.50;;;;;;;;;;5004323;28;20050;-70
2022/01/22 03:41:32;;;;;;;21.15;16.23;;;;;;;;;;5020901;28;20039;-70
2022/01/22 03:43:59;;;;;;;18.80;16.42;;;;;;;;;;5000867;28;20049;-70
2022/01/22 03:46:24;;;;;;;17.77;15.98;;;;;;;;;;4996324;28;20402;-71
2022/01/22 03:48:52;;;;;;;22.15;19.70;;;;;;;;;;4985027;28;20037;-70
2022/01/22 03:51:18;;;;;;;19.88;17.70;;;;;;;;;;4995479;28;20128;-70
2022/01/22 03:53:44;;;;;;;20.85;18.65;;;;;;;;;;5020954;28;20034;-70
2022/01/22 03:56:11;;;;;;;26.13;19.00;;;;;;;;;;4984137;28;20045;-70
2022/01/22 03:59:03;;;;;;;22.02;17.45;;;;;;;;;;4966231;28;20325;-70
2022/01/22 04:04:20;;;;;;;21.83;18.08;;;;;;;;;;4988473;28;20042;-70
2022/01/22 04:09:29;;;;;;;21.95;17.30;;;;;;;;;;5005580;28;20065;-70
2022/01/22 04:11:57;;;;;;;20.27;18.08;;;;;;;;;;4945524;28;1132842;-69
2022/01/22 04:14:27;;;;;;;20.75;18.52;;;;;;;;;;5023018;28;20045;-70
2022/01/22 04:17:05;;;;;;;19.10;16.23;;;;;;;;;;4981682;28;20485;-70
2022/01/22 04:25:02;;;;;;;24.00;19.25;;;;;;;;;;4979544;28;20137;-69
2022/01/22 04:27:28;;;;;;;28.10;19.77;;;;;;;;;;5018683;28;20644;-70
2022/01/22 04:29:57;;;;;;;22.70;19.13;;;;;;;;;;5022083;28;20511;-70
2022/01/22 04:32:30;;;;;;;;;;;;;;;;;;5018263;28;20092;-70
2022/01/22 04:34:56;;;;;;;21.70;18.90;;;;;;;;;;4998290;28;19968;-70
2022/01/22 04:37:24;;;;;;;20.58;18.23;;;;;;;;;;4994467;28;20485;-70
2022/01/22 04:39:50;;;;;;;21.27;18.98;;;;;;;;;;4995946;28;20030;-69
2022/01/22 04:42:17;;;;;;;23.02;20.13;;;;;;;;;;5007592;28;20403;-70
2022/01/22 04:45:05;;;;;;;23.17;17.83;;;;;;;;;;5011492;28;20621;-69
2022/01/22 04:48:26;;;;;;;20.70;18.50;;;;;;;;;;4990143;28;20052;-70
2022/01/22 04:55:35;;;;;;;20.83;18.15;;;;;;;;;;4988193;28;20113;-70
2022/01/22 04:58:04;;;;;;;24.88;17.67;;;;;;;;;;5021808;28;20221;-70
2022/01/22 05:00:33;;;;;;;22.13;19.83;;;;;;;;;;4995684;28;20481;-70
2022/01/22 05:03:09;;;;;;;22.70;19.38;;;;;;;;;;5008157;28;20037;-70
2022/01/22 05:06:06;;;;;;;23.27;18.88;;;;;;;;;;4992567;28;20184;-70
2022/01/22 05:08:44;;;;;;;26.27;19.38;;;;;;;;;;5023123;28;20083;-71
2022/01/22 05:11:13;;;;;;;24.10;19.35;;;;;;;;;;5012920;28;20050;-70
2022/01/22 05:13:40;;;;;;;26.45;19.67;;;;;;;;;;5009316;28;20401;-70
2022/01/22 05:16:09;;;;;;;23.30;17.70;;;;;;;;;;5023766;28;20042;-71
2022/01/22 05:18:43;;;;;;;24.80;21.90;;;;;;;;;;5010666;28;20450;-70
2022/01/22 05:21:13;;;;;;;21.88;18.50;;;;;;;;;;4988882;28;20069;-70
2022/01/22 05:23:41;;;;;;;23.23;19.60;;;;;;;;;;4975367;28;20386;-70
2022/01/22 05:26:22;;;;;;;25.25;20.98;;;;;;;;;;4989693;28;20036;-70
2022/01/22 05:37:07;;;;;;;20.80;17.60;;;;;;;;;;5008543;28;19964;-70
2022/01/22 05:39:34;;;;;;;22.48;18.17;;;;;;;;;;5003530;28;20551;-70
2022/01/22 05:42:03;;;;;;;23.00;20.13;;;;;;;;;;5019148;28;20050;-70
2022/01/22 05:44:31;;;;;;;24.48;19.77;;;;;;;;;;4991483;28;20092;-69
2022/01/22 05:47:02;;;;;;;26.07;20.93;;;;;;;;;;4992570;28;20550;-69
2022/01/22 05:49:30;;;;;;;23.40;20.83;;;;;;;;;;5002239;28;20038;-71
2022/01/22 05:51:57;;;;;;;27.52;22.38;;;;;;;;;;4997489;28;20044;-70
2022/01/22 05:54:47;;;;;;;26.90;21.10;;;;;;;;;;4991611;28;20045;-70
2022/01/22 05:59:53;;;;;;;26.05;19.75;;;;;;;;;;5022236;28;20064;-70
2022/01/22 06:02:20;;;;;;;32.42;23.27;;;;;;;;;;5010982;28;20042;-70
2022/01/22 06:04:56;;;;;;;23.15;19.23;;;;;;;;;;5014956;28;20048;-69
2022/01/22 06:07:22;;;;;;;25.02;20.52;;;;;;;;;;5007962;28;20554;-70
2022/01/22 06:10:16;;;;;;;23.10;19.27;;;;;;;;;;5008452;28;20038;-70
2022/01/22 06:15:08;;;;;;;26.95;21.10;;;;;;;;;;5024054;28;20473;-70
2022/01/22 06:17:47;;;;;;;21.45;18.83;;;;;;;;;;5005284;28;20072;-72
2022/01/22 06:20:16;;;;;;;24.42;19.40;;;;;;;;;;5021859;28;20069;-70
2022/01/22 06:22:42;;;;;;;24.13;18.92;;;;;;;;;;5001335;28;20038;-70
2022/01/22 06:25:09;;;;;;;23.70;19.27;;;;;;;;;;5014428;28;20101;-70
2022/01/22 06:27:34;;;;;;;22.98;19.00;;;;;;;;;;5012764;28;20537;-71
2022/01/22 06:30:00;;;;;;;22.02;19.67;;;;;;;;;;5007147;28;20149;-70
2022/01/22 06:32:27;;;;;;;23.35;18.83;;;;;;;;;;5009260;28;20037;-70
2022/01/22 06:34:52;;;;;;;21.15;18.50;;;;;;;;;;4973489;28;20379;-70
2022/01/22 06:37:18;;;;;;;19.05;17.10;;;;;;;;;;4980422;28;20050;-71
2022/01/22 06:41:44;;;;;;;21.65;18.48;;;;;;;;;;4992826;28;20501;-70
2022/01/22 06:43:10;;;;;;;24.50;19.33;;;;;;;;;;4998935;28;20173;-71
2022/01/22 06:45:56;;;;;;;20.98;18.75;;;;;;;;;;4969966;28;20137;-70
2022/01/22 06:48:23;;;;;;;27.50;19.90;;;;;;;;;;5004197;28;20043;-71
2022/01/22 06:51:08;;;;;;;27.73;20.25;;;;;;;;;;5005896;28;20030;-69
2022/01/22 06:53:40;;;;;;;23.50;19.45;;;;;;;;;;4989479;28;20325;-69
2022/01/22 06:56:09;;;;;;;25.38;19.15;;;;;;;;;;5005903;28;20509;-69
2022/01/22 06:58:57;;;;;;;26.65;20.95;;;;;;;;;;5019765;28;20045;-68
2022/01/22 07:01:24;;;;;;;25.60;19.55;;;;;;;;;;5010412;28;20335;-69
2022/01/22 07:03:56;;;;;;;26.80;20.27;;;;;;;;;;4993499;28;20109;-69
2022/01/22 07:06:53;;;;;;;27.08;20.65;;;;;;;;;;4985056;28;20305;-69
2022/01/22 07:09:20;;;;;;;25.33;20.70;;;;;;;;;;5014089;28;20037;-68
2022/01/22 07:11:45;;;;;;;27.75;20.13;;;;;;;;;;5010965;28;20575;-69
2022/01/22 07:14:11;;;;;;;25.92;21.63;;;;;;;;;;5015354;28;20041;-70
2022/01/22 07:16:37;;;;;;;33.70;22.10;;;;;;;;;;5015135;28;20040;-69
2022/01/22 07:19:22;;;;;;;22.02;18.67;;;;;;;;;;4996140;28;20089;-69
2022/01/22 07:22:48;;;;;;;26.65;21.88;;;;;;;;;;4990137;28;20038;-70
2022/01/22 07:24:56;;;;;;;29.88;21.63;;;;;;;;;;4987903;28;20066;-70
2022/01/22 07:27:22;;;;;;;27.77;22.65;;;;;;;;;;5021857;28;20364;-70
2022/01/22 07:29:49;;;;;;;30.42;21.67;;;;;;;;;;5000128;28;20460;-69
2022/01/22 07:32:26;;;;;;;24.23;20.95;;;;;;;;;;5014792;28;20496;-70
2022/01/22 07:34:52;;;;;;;30.25;21.98;;;;;;;;;;5014161;28;20084;-70
2022/01/22 07:37:21;;;;;;;31.10;24.38;;;;;;;;;;4996501;28;20091;-70
2022/01/22 07:39:47;;;;;;;32.67;22.95;;;;;;;;;;4999732;28;20041;-69
2022/01/22 07:42:47;;;;;;;27.77;22.55;;;;;;;;;;4953845;28;20049;-69
2022/01/22 07:45:32;;;;;;;24.33;19.30;;;;;;;;;;4992365;28;20053;-70
2022/01/22 07:48:06;;;;;;;27.27;22.35;;;;;;;;;;4998705;28;20557;-69
2022/01/22 07:50:50;;;;;;;30.35;23.23;;;;;;;;;;5016452;28;20029;-69
2022/01/22 07:53:16;;;;;;;33.80;23.92;;;;;;;;;;4995298;28;20121;-69
2022/01/22 07:55:42;;;;;;;33.80;24.88;;;;;;;;;;5016331;28;20076;-69
2022/01/22 07:58:07;;;;;;;29.40;24.52;;;;;;;;;;5016128;28;20320;-69
2022/01/22 08:00:33;;;;;;;29.55;21.85;;;;;;;;;;4996875;28;20108;-69
2022/01/22 08:02:59;;;;;;;24.63;20.65;;;;;;;;;;4996564;28;20413;-70
2022/01/22 08:05:50;;;;;;;31.67;25.10;;;;;;;;;;5016110;28;20041;-69
2022/01/22 08:08:42;;;;;;;31.98;25.60;;;;;;;;;;5001338;28;20047;-69
2022/01/22 08:11:26;;;;;;;35.15;26.50;;;;;;;;;;5013139;28;20045;-70
2022/01/22 08:13:52;;;;;;;27.27;21.65;;;;;;;;;;5003908;28;20389;-69
2022/01/22 08:16:18;;;;;;;31.50;22.33;;;;;;;;;;4990405;28;20073;-68
2022/01/22 08:18:44;;;;;;;39.72;25.33;;;;;;;;;;4988097;28;20049;-69
2022/01/22 08:21:09;;;;;;;35.47;24.73;;;;;;;;;;4999966;28;20650;-69
2022/01/22 08:23:54;;;;;;;28.33;21.60;;;;;;;;;;4997783;28;20022;-69
2022/01/22 08:27:32;;;;;;;35.90;22.30;;;;;;;;;;5001239;28;20567;-69
2022/01/22 08:29:58;;;;;;;39.33;29.17;;;;;;;;;;5015466;28;20405;-70
2022/01/22 08:32:55;;;;;;;37.25;26.08;;;;;;;;;;5010939;28;20384;-70
2022/01/22 08:37:58;;;;;;;38.70;25.27;;;;;;;;;;5016296;28;20108;-69
2022/01/22 08:40:23;;;;;;;40.95;26.23;;;;;;;;;;5011280;28;20117;-70
2022/01/22 08:42:50;;;;;;;45.53;26.50;;;;;;;;;;5001980;28;20121;-69
2022/01/22 08:45:17;;;;;;;50.88;28.45;;;;;;;;;;4977230;28;20384;-69
2022/01/22 08:47:42;;;;;;;38.55;24.35;;;;;;;;;;5014611;28;20516;-69
2022/01/22 08:50:08;;;;;;;39.40;26.65;;;;;;;;;;4981014;28;20073;-69
2022/01/22 08:52:36;;;;;;;43.35;28.83;;;;;;;;;;5008909;28;20057;-68
2022/01/22 08:55:04;;;;;;;41.58;27.88;;;;;;;;;;5006647;28;20073;-68
2022/01/22 08:57:30;;;;;;;41.58;26.25;;;;;;;;;;4992398;28;20033;-68
2022/01/22 09:00:09;;;;;;;47.63;27.50;;;;;;;;;;5009118;28;20037;-68
2022/01/22 09:02:45;;;;;;;37.42;24.55;;;;;;;;;;5004600;28;20041;-68
2022/01/22 09:05:47;;;;;;;35.40;21.38;;;;;;;;;;4962479;28;20043;-68
2022/01/22 09:08:25;;;;;;;48.17;25.17;;;;;;;;;;5000247;28;20050;-68
2022/01/22 09:11:00;;;;;;;38.58;21.95;;;;;;;;;;5001138;28;20117;-68
2022/01/22 09:13:43;;;;;;;45.85;24.85;;;;;;;;;;4987866;28;20618;-68
2022/01/22 09:16:08;;;;;;;45.22;26.02;;;;;;;;;;5005586;28;20041;-68
2022/01/22 09:18:35;;;;;;;39.35;23.23;;;;;;;;;;5021470;28;20093;-68
2022/01/22 09:23:29;;;;;;;52.22;28.33;;;;;;;;;;4999993;28;20038;-68
2022/01/22 09:25:55;;;;;;;39.78;23.70;;;;;;;;;;4992495;28;20065;-68
2022/01/22 09:28:22;;;;;;;47.95;28.15;;;;;;;;;;5019111;28;20113;-68
2022/01/22 09:30:51;;;;;;;44.50;24.38;;;;;;;;;;5007449;28;20034;-67
2022/01/22 09:33:17;;;;;;;50.42;26.00;;;;;;;;;;5020878;28;20105;-68
2022/01/22 09:36:02;;;;;;;51.80;30.10;;;;;;;;;;5005535;28;20057;-68
2022/01/22 09:38:31;;;;;;;49.00;26.08;;;;;;;;;;5010107;28;20046;-68
2022/01/22 09:41:18;;;;;;;50.75;25.20;;;;;;;;;;4963415;28;20053;-67
2022/01/22 09:44:04;;;;;;;52.88;28.77;;;;;;;;;;5008751;28;20048;-67
2022/01/22 09:47:05;;;;;;;48.05;25.02;;;;;;;;;;4992748;28;20042;-67
2022/01/22 09:49:39;;;;;;;61.38;28.67;;;;;;;;;;4999625;28;20113;-68
2022/01/22 09:52:26;;;;;;;43.42;23.88;;;;;;;;;;5004945;28;20136;-67
2022/01/22 09:54:52;;;;;;;43.60;25.90;;;;;;;;;;4992369;28;20164;-67
2022/01/22 09:57:17;;;;;;;45.58;25.52;;;;;;;;;;5006800;28;20520;-67
2022/01/22 10:00:08;;;;;;;42.40;23.90;;;;;;;;;;5024833;28;20045;-67
2022/01/22 10:02:45;;;;;;;47.20;26.67;;;;;;;;;;4993070;28;20048;-67
2022/01/22 10:05:38;;;;;;;49.65;28.48;;;;;;;;;;5004741;28;20034;-67
2022/01/22 10:08:27;;;;;;;34.65;23.60;;;;;;;;;;5010440;28;20045;-67
2022/01/22 10:11:17;;;;;;;43.80;24.42;;;;;;;;;;5009833;28;20467;-67
2022/01/22 10:14:04;;;;;;;54.40;28.17;;;;;;;;;;5006453;28;20133;-67
2022/01/22 10:16:32;;;;;;;39.75;26.13;;;;;;;;;;5000547;28;20029;-67
2022/01/22 10:19:18;;;;;;;45.50;27.40;;;;;;;;;;5005891;28;20040;-67
2022/01/22 10:21:45;;;;;;;46.00;26.00;;;;;;;;;;5006672;28;20042;-68
2022/01/22 10:24:42;;;;;;;46.05;25.95;;;;;;;;;;5011335;28;20619;-68
2022/01/22 10:27:45;;;;;;;50.92;27.08;;;;;;;;;;5011337;28;20042;-68
2022/01/22 10:30:15;;;;;;;34.42;24.30;;;;;;;;;;5015811;28;20033;-68
2022/01/22 10:35:33;;;;;;;39.42;25.55;;;;;;;;;;5014014;28;20037;-68
2022/01/22 10:38:48;;;;;;;50.45;27.05;;;;;;;;;;4998293;28;20156;-68
2022/01/22 10:41:16;;;;;;;39.30;26.27;;;;;;;;;;5017305;28;20492;-68
2022/01/22 10:43:54;;;;;;;38.63;23.95;;;;;;;;;;5010519;28;20040;-69
2022/01/22 10:49:00;;;;;;;46.22;27.77;;;;;;;;;;5009310;28;20060;-68
2022/01/22 10:51:28;;;;;;;46.17;27.23;;;;;;;;;;4996674;28;20571;-68
2022/01/22 10:54:01;;;;;;;38.67;24.80;;;;;;;;;;5003962;28;20197;-67
2022/01/22 10:56:29;;;;;;;41.88;26.25;;;;;;;;;;4992949;28;20045;-68
2022/01/22 10:59:08;;;;;;;41.83;25.45;;;;;;;;;;5009894;28;20128;-68
2022/01/22 11:01:54;;;;;;;43.75;26.80;;;;;;;;;;5009792;28;20121;-67
2022/01/22 11:04:23;;;;;;;41.88;27.10;;;;;;;;;;4990457;28;20449;-67
2022/01/22 11:07:15;;;;;;;41.25;24.85;;;;;;;;;;5001374;28;20038;-67
2022/01/22 11:09:41;;;;;;;44.10;26.27;;;;;;;;;;5016053;28;20480;-68
2022/01/22 11:12:07;;;;;;;41.15;25.15;;;;;;;;;;5025047;28;20081;-67
2022/01/22 11:14:36;;;;;;;39.08;23.25;;;;;;;;;;4994245;28;20128;-68
2022/01/22 11:17:02;;;;;;;38.03;25.08;;;;;;;;;;5004012;28;20140;-68
2022/01/22 11:19:33;;;;;;;42.85;24.15;;;;;;;;;;5001381;28;20141;-68
2022/01/22 11:22:13;;;;;;;42.13;26.38;;;;;;;;;;4993934;28;20030;-68
2022/01/22 11:24:41;;;;;;;40.55;25.33;;;;;;;;;;5002057;28;20073;-68
2022/01/22 11:27:09;;;;;;;42.47;25.65;;;;;;;;;;5003382;28;20030;-68
2022/01/22 11:29:39;;;;;;;40.63;27.85;;;;;;;;;;4991318;28;20485;-68
2022/01/22 11:32:10;;;;;;;40.22;25.45;;;;;;;;;;5006787;28;20026;-68
2022/01/22 11:34:37;;;;;;;41.80;25.27;;;;;;;;;;5005768;28;20396;-68
2022/01/22 11:37:13;;;;;;;41.45;24.33;;;;;;;;;;4986759;28;20505;-68
2022/01/22 11:39:39;;;;;;;38.17;24.88;;;;;;;;;;5002615;28;20488;-68
2022/01/22 11:42:05;;;;;;;41.30;24.33;;;;;;;;;;4989412;28;20073;-68
2022/01/22 11:45:01;;;;;;;42.63;25.58;;;;;;;;;;5005173;28;20038;-68
2022/01/22 11:47:27;;;;;;;39.08;26.25;;;;;;;;;;5019687;28;20392;-68
2022/01/22 11:50:06;;;;;;;41.63;24.52;;;;;;;;;;4988213;28;20050;-68
2022/01/22 11:52:38;;;;;;;39.35;25.50;;;;;;;;;;5004488;28;20532;-68
2022/01/22 11:55:15;;;;;;;39.88;24.02;;;;;;;;;;5002705;28;20619;-68
2022/01/22 11:57:43;;;;;;;42.47;26.23;;;;;;;;;;5020027;28;20055;-68
2022/01/22 12:00:29;;;;;;;38.67;25.25;;;;;;;;;;4986946;28;20080;-68
2022/01/22 12:03:07;;;;;;;44.35;26.75;;;;;;;;;;5004544;28;20041;-68
2022/01/22 12:05:33;;;;;;;34.70;24.27;;;;;;;;;;5004985;28;20400;-68
2022/01/22 12:08:00;;;;;;;40.00;26.33;;;;;;;;;;5013795;28;20069;-68
2022/01/22 12:10:43;;;;;;;37.38;23.80;;;;;;;;;;5005640;28;20037;-68
2022/01/22 12:16:13;;;;;;;38.78;26.65;;;;;;;;;;5004736;28;20044;-68
2022/01/22 12:18:45;;;;;;;32.10;23.77;;;;;;;;;;5001616;28;20044;-68
2022/01/22 12:21:36;;;;;;;38.20;27.27;;;;;;;;;;4991578;28;20046;-67
2022/01/22 12:24:05;;;;;;;31.38;24.30;;;;;;;;;;5002971;28;20065;-68
2022/01/22 12:26:40;;;;;;;34.90;24.52;;;;;;;;;;5004261;28;20057;-68
2022/01/22 12:29:29;;;;;;;30.08;23.13;;;;;;;;;;5004579;28;20034;-68
2022/01/22 12:32:08;;;;;;;39.88;23.10;;;;;;;;;;5004973;28;20520;-68
2022/01/22 12:34:54;;;;;;;27.67;21.67;;;;;;;;;;5021681;28;20554;-68
2022/01/22 12:37:21;;;;;;;35.08;25.17;;;;;;;;;;4986494;28;20049;-68
2022/01/22 12:39:54;;;;;;;32.95;22.17;;;;;;;;;;4999642;28;20037;-68
2022/01/22 12:42:33;;;;;;;31.17;23.50;;;;;;;;;;5019194;28;20428;-68
2022/01/22 12:45:06;;;;;;;28.77;23.85;;;;;;;;;;4980547;28;20092;-69
2022/01/22 12:47:35;;;;;;;35.92;24.15;;;;;;;;;;5003099;28;20125;-68
2022/01/22 12:50:06;;;;;;;34.22;24.67;;;;;;;;;;4988702;28;20044;-68
2022/01/22 12:52:33;;;;;;;29.00;23.33;;;;;;;;;;5004139;28;20099;-68
2022/01/22 12:55:00;;;;;;;35.22;25.40;;;;;;;;;;5005549;28;20065;-68
2022/01/22 12:57:27;;;;;;;34.88;24.45;;;;;;;;;;5009343;28;20042;-68
2022/01/22 13:02:57;;;;;;;30.35;22.95;;;;;;;;;;4987587;28;20674;-68
2022/01/22 13:05:28;;;;;;;31.30;23.63;;;;;;;;;;4994679;28;20038;-68
2022/01/22 13:07:59;;;;;;;36.05;24.50;;;;;;;;;;5001990;28;20050;-68
2022/01/22 13:15:10;;;;;;;35.80;26.42;;;;;;;;;;5021317;23;20072;-65
2022/01/22 13:17:36;;;;;;;36.70;27.55;;;;;;;;;;5019906;28;20298;-66
2022/01/22 13:20:03;;;;;;;30.60;25.35;;;;;;;;;;5024537;28;20037;-66
2022/01/22 13:22:37;;;;;;;33.03;26.25;;;;;;;;;;5020836;28;20037;-66
2022/01/22 13:25:07;;;;;;;28.50;24.02;;;;;;;;;;5023337;28;20068;-64
2022/01/22 13:27:34;;;;;;;23.55;20.80;;;;;;;;;;5028274;28;20141;-66
2022/01/22 13:30:00;;;;;;;19.98;18.10;;;;;;;;;;5026158;28;20335;-65
2022/01/22 13:40:58;;;;;;;18.20;16.10;;;;;;;;;;5026446;28;20072;-67
2022/01/22 13:49:05;;;;;;;17.88;16.27;;;;;;;;;;5026849;28;20033;-66
2022/01/22 13:51:32;;;;;;;19.48;17.48;;;;;;;;;;5025170;28;20099;-66
2022/01/22 13:53:59;;;;;;;19.17;17.33;;;;;;;;;;5028309;28;20039;-67
2022/01/22 13:56:43;;;;;;;20.90;18.38;;;;;;;;;;5029077;28;20323;-66
2022/01/22 13:59:17;;;;;;;19.23;17.23;;;;;;;;;;5025269;28;20071;-66
2022/01/22 14:01:52;;;;;;;22.10;18.63;;;;;;;;;;5022463;28;20037;-66
2022/01/22 14:04:18;;;;;;;21.13;19.02;;;;;;;;;;5016599;28;20718;-66
2022/01/22 14:06:46;;;;;;;19.63;17.20;;;;;;;;;;5027094;28;20083;-66
2022/01/22 14:09:13;;;;;;;22.73;20.45;;;;;;;;;;5024583;28;20038;-66
2022/01/22 14:12:15;;;;;;;24.05;20.30;;;;;;;;;;5020683;28;20104;-66
2022/01/22 14:15:17;;;;;;;22.83;20.15;;;;;;;;;;5018185;28;20140;-65
2022/01/22 14:20:42;;;;;;;19.98;17.88;;;;;;;;;;5026212;28;20033;-65
2022/01/22 14:23:13;;;;;;;23.55;19.70;;;;;;;;;;5025875;28;20580;-65
2022/01/22 14:26:04;;;;;;;25.55;18.30;;;;;;;;;;5029877;28;20080;-65
2022/01/22 14:28:41;;;;;;;21.08;18.83;;;;;;;;;;5021623;28;20049;-65
2022/01/22 14:31:53;;;;;;;22.88;20.48;;;;;;;;;;5025628;28;20098;-66
2022/01/22 14:34:35;;;;;;;23.63;20.70;;;;;;;;;;5016141;28;20048;-66
2022/01/22 14:37:04;;;;;;;22.63;20.33;;;;;;;;;;5024107;28;20048;-66
2022/01/22 14:45:28;;;;;;;23.05;20.60;;;;;;;;;;5021769;28;20038;-66
2022/01/22 14:47:55;;;;;;;19.23;17.10;;;;;;;;;;5019155;28;20041;-66
2022/01/22 14:50:22;;;;;;;23.45;19.65;;;;;;;;;;5021568;28;20061;-67
2022/01/22 14:52:53;;;;;;;26.95;20.17;;;;;;;;;;5023475;28;20435;-67
2022/01/22 14:55:18;;;;;;;23.38;20.48;;;;;;;;;;5022497;28;20121;-66
2022/01/22 14:57:44;;;;;;;23.63;19.45;;;;;;;;;;5022443;28;20398;-66
2022/01/22 15:00:15;;;;;;;20.55;17.60;;;;;;;;;;5017517;28;20136;-66
2022/01/22 15:02:41;;;;;;;25.85;21.45;;;;;;;;;;5021268;28;20034;-67
2022/01/22 15:05:11;;;;;;;31.08;21.63;;;;;;;;;;5022901;28;20036;-67
2022/01/22 15:07:38;;;;;;;22.45;20.05;;;;;;;;;;5024457;28;20420;-67
2022/01/22 15:10:06;;;;;;;26.83;19.10;;;;;;;;;;5020189;28;20132;-67
2022/01/22 15:12:36;;;;;;;28.17;22.08;;;;;;;;;;5014631;28;20173;-66
2022/01/22 15:15:03;;;;;;;28.17;22.48;;;;;;;;;;5022700;28;20041;-66
2022/01/22 15:17:42;;;;;;;23.90;20.23;;;;;;;;;;5020638;28;20041;-66
2022/01/22 15:20:09;;;;;;;22.17;17.80;;;;;;;;;;5019879;28;20041;-67
2022/01/22 15:22:34;;;;;;;25.25;20.02;;;;;;;;;;5019354;28;20152;-67
2022/01/22 15:25:00;;;;;;;25.38;21.27;;;;;;;;;;5020598;28;20189;-67
2022/01/22 15:27:26;;;;;;;22.77;19.85;;;;;;;;;;5023094;28;20546;-68
2022/01/22 15:35:00;;;;;;;28.13;24.05;;;;;;;;;;5018596;28;20075;-67
2022/01/22 15:37:26;;;;;;;26.80;21.05;;;;;;;;;;5023016;28;20033;-67
2022/01/22 15:39:52;;;;;;;23.70;19.10;;;;;;;;;;5019348;28;20042;-67
2022/01/22 15:42:17;;;;;;;41.28;36.55;;;;;;;;;;5004805;28;20446;-67
2022/01/22 15:44:43;;;;;;;27.85;21.10;;;;;;;;;;5019506;28;20077;-66
2022/01/22 15:47:10;;;;;;;19.70;17.40;;;;;;;;;;5025208;28;20055;-66
2022/01/22 15:49:40;;;;;;;18.08;16.17;;;;;;;;;;5015385;28;20040;-65
2022/01/22 15:52:05;;;;;;;20.13;17.05;;;;;;;;;;5023816;28;20084;-66
2022/01/22 15:54:32;;;;;;;20.02;18.00;;;;;;;;;;5027766;28;20041;-68
2022/01/22 15:56:59;;;;;;;19.90;17.88;;;;;;;;;;5035420;28;20337;-67
2022/01/22 15:59:25;;;;;;;17.38;15.77;;;;;;;;;;5033308;28;20033;-67
2022/01/22 16:01:52;;;;;;;21.00;17.75;;;;;;;;;;5026288;28;20041;-66
2022/01/22 16:04:19;;;;;;;19.75;17.58;;;;;;;;;;5029303;28;20033;-68
2022/01/22 16:09:16;;;;;;;21.95;19.13;;;;;;;;;;5033493;28;20041;-67
2022/01/22 16:11:42;;;;;;;23.23;19.38;;;;;;;;;;5035322;28;20040;-67
2022/01/22 16:14:08;;;;;;;26.40;20.67;;;;;;;;;;5029594;28;20284;-66
2022/01/22 16:16:37;;;;;;;21.52;18.52;;;;;;;;;;5025869;28;20035;-67
2022/01/22 16:19:03;;;;;;;23.58;18.50;;;;;;;;;;5029504;28;20030;-67
2022/01/22 16:21:30;;;;;;;21.08;17.80;;;;;;;;;;5022527;28;20120;-69
2022/01/22 16:23:56;;;;;;;22.55;19.13;;;;;;;;;;5021743;28;20134;-68
2022/01/22 16:26:21;;;;;;;22.55;19.25;;;;;;;;;;5021266;28;20104;-69
2022/01/22 16:28:47;;;;;;;21.23;17.65;;;;;;;;;;5025710;28;20145;-68
2022/01/22 16:31:13;;;;;;;21.17;18.85;;;;;;;;;;5021476;28;20033;-69
2022/01/22 16:33:39;;;;;;;23.88;18.00;;;;;;;;;;5023221;28;20370;-68
2022/01/22 16:36:04;;;;;;;20.30;18.10;;;;;;;;;;5024025;28;20033;-68
2022/01/22 16:38:30;;;;;;;19.67;17.08;;;;;;;;;;5025537;28;20046;-68
2022/01/22 16:40:56;;;;;;;18.83;16.35;;;;;;;;;;5021170;28;20041;-68
2022/01/22 16:43:29;;;;;;;23.13;17.98;;;;;;;;;;5021811;28;20033;-68
2022/01/22 16:51:24;;;;;;;22.77;18.88;;;;;;;;;;5030925;28;20041;-68
2022/01/22 16:59:14;;;;;;;19.15;16.95;;;;;;;;;;5026256;28;20143;-68
2022/01/22 17:01:44;;;;;;;27.58;19.58;;;;;;;;;;5031238;28;20279;-69
2022/01/22 17:04:15;;;;;;;26.85;19.05;;;;;;;;;;5031420;28;20029;-68
2022/01/22 17:06:41;;;;;;;34.65;20.75;;;;;;;;;;5026447;28;20128;-69
2022/01/22 17:14:44;;;;;;;22.67;19.48;;;;;;;;;;5012196;28;20073;-68